sensor_id;sensor_type;location;lat;lon;timestamp;temperature;humidity
73875;HTU21D;62209;47.568;7.558;2024-02-04T00:08:32;5.75;108.28
73875;HTU21D;62209;47.568;7.558;2024-02-04T00:23:38;5.75;108.24
73875;HTU21D;62209;47.568;7.558;2024-02-04T00:38:44;5.69;108.49
73875;HTU21D;62209;47.568;7.558;2024-02-04T00:53:49;5.70;108.20
73875;HTU21D;62209;47.568;7.558;2024-02-04T01:08:56;5.70;107.82
73875;HTU21D;62209;47.568;7.558;2024-02-04T01:24:02;5.64;107.34
73875;HTU21D;62209;47.568;7.558;2024-02-04T01:39:08;5.62;107.04
73875;HTU21D;62209;47.568;7.558;2024-02-04T01:54:14;5.60;106.74
73875;HTU21D;62209;47.568;7.558;2024-02-04T02:09:21;5.52;106.30
73875;HTU21D;62209;47.568;7.558;2024-02-04T02:24:32;5.55;105.69
73875;HTU21D;62209;47.568;7.558;2024-02-04T02:39:39;5.50;105.51
73875;HTU21D;62209;47.568;7.558;2024-02-04T02:54:50;5.41;105.41
73875;HTU21D;62209;47.568;7.558;2024-02-04T03:09:55;5.30;105.60
73875;HTU21D;62209;47.568;7.558;2024-02-04T03:25:01;5.15;105.55
73875;HTU21D;62209;47.568;7.558;2024-02-04T03:40:08;4.91;105.78
73875;HTU21D;62209;47.568;7.558;2024-02-04T03:55:14;4.87;106.00
73875;HTU21D;62209;47.568;7.558;2024-02-04T04:10:19;5.06;105.63
73875;HTU21D;62209;47.568;7.558;2024-02-04T04:25:25;5.25;105.40
73875;HTU21D;62209;47.568;7.558;2024-02-04T04:40:30;5.39;104.81
73875;HTU21D;62209;47.568;7.558;2024-02-04T04:55:36;5.27;104.95
73875;HTU21D;62209;47.568;7.558;2024-02-04T05:10:41;5.28;104.76
73875;HTU21D;62209;47.568;7.558;2024-02-04T05:25:47;5.38;104.78
73875;HTU21D;62209;47.568;7.558;2024-02-04T05:40:52;5.40;104.60
73875;HTU21D;62209;47.568;7.558;2024-02-04T05:55:58;5.50;104.36
73875;HTU21D;62209;47.568;7.558;2024-02-04T06:11:03;5.39;103.88
73875;HTU21D;62209;47.568;7.558;2024-02-04T06:26:09;5.34;103.64
73875;HTU21D;62209;47.568;7.558;2024-02-04T06:41:14;5.34;103.35
73875;HTU21D;62209;47.568;7.558;2024-02-04T06:56:20;5.20;103.62
73875;HTU21D;62209;47.568;7.558;2024-02-04T07:11:25;5.38;102.67
73875;HTU21D;62209;47.568;7.558;2024-02-04T07:26:30;5.35;102.86
73875;HTU21D;62209;47.568;7.558;2024-02-04T07:41:36;5.61;102.54
73875;HTU21D;62209;47.568;7.558;2024-02-04T07:56:42;5.98;101.32
73875;HTU21D;62209;47.568;7.558;2024-02-04T08:11:47;6.50;100.43
73875;HTU21D;62209;47.568;7.558;2024-02-04T08:26:53;7.09;98.94
73875;HTU21D;62209;47.568;7.558;2024-02-04T08:41:58;8.12;96.38
73875;HTU21D;62209;47.568;7.558;2024-02-04T08:57:04;9.10;94.17
73875;HTU21D;62209;47.568;7.558;2024-02-04T09:12:10;8.93;92.40
73875;HTU21D;62209;47.568;7.558;2024-02-04T09:27:16;9.86;91.43
73875;HTU21D;62209;47.568;7.558;2024-02-04T09:42:22;9.27;92.72
73875;HTU21D;62209;47.568;7.558;2024-02-04T09:57:29;10.03;91.75
73875;HTU21D;62209;47.568;7.558;2024-02-04T10:12:36;10.66;90.02
73875;HTU21D;62209;47.568;7.558;2024-02-04T10:27:44;10.65;90.73
73875;HTU21D;62209;47.568;7.558;2024-02-04T10:42:51;10.06;90.86
73875;HTU21D;62209;47.568;7.558;2024-02-04T10:58:00;10.57;91.84
73875;HTU21D;62209;47.568;7.558;2024-02-04T11:13:07;10.80;91.24
73875;HTU21D;62209;47.568;7.558;2024-02-04T11:28:15;11.97;88.98
73875;HTU21D;62209;47.568;7.558;2024-02-04T11:43:23;12.44;88.25
73875;HTU21D;62209;47.568;7.558;2024-02-04T11:58:29;10.07;89.11
73875;HTU21D;62209;47.568;7.558;2024-02-04T12:13:36;11.31;91.26
73875;HTU21D;62209;47.568;7.558;2024-02-04T12:28:45;11.64;90.93
73875;HTU21D;62209;47.568;7.558;2024-02-04T12:43:51;11.17;91.31
73875;HTU21D;62209;47.568;7.558;2024-02-04T12:58:58;11.12;90.13
73875;HTU21D;62209;47.568;7.558;2024-02-04T13:14:04;10.58;90.44
73875;HTU21D;62209;47.568;7.558;2024-02-04T13:29:10;11.44;90.51
73875;HTU21D;62209;47.568;7.558;2024-02-04T13:44:16;11.04;90.76
73875;HTU21D;62209;47.568;7.558;2024-02-04T13:59:22;10.10;91.89
73875;HTU21D;62209;47.568;7.558;2024-02-04T14:14:27;9.65;93.27
73875;HTU21D;62209;47.568;7.558;2024-02-04T14:29:33;10.14;93.51
73875;HTU21D;62209;47.568;7.558;2024-02-04T14:44:39;10.41;93.00
73875;HTU21D;62209;47.568;7.558;2024-02-04T14:59:45;9.21;95.42
73875;HTU21D;62209;47.568;7.558;2024-02-04T15:14:51;8.55;96.25
73875;HTU21D;62209;47.568;7.558;2024-02-04T15:29:58;8.30;96.71
73875;HTU21D;62209;47.568;7.558;2024-02-04T15:45:05;8.37;96.97
73875;HTU21D;62209;47.568;7.558;2024-02-04T16:00:12;8.14;97.97
73875;HTU21D;62209;47.568;7.558;2024-02-04T16:15:26;7.61;99.54
73875;HTU21D;62209;47.568;7.558;2024-02-04T16:30:33;7.38;100.24
73875;HTU21D;62209;47.568;7.558;2024-02-04T16:45:39;7.10;101.17
73875;HTU21D;62209;47.568;7.558;2024-02-04T17:00:45;6.91;101.63
73875;HTU21D;62209;47.568;7.558;2024-02-04T17:15:52;6.72;102.23
73875;HTU21D;62209;47.568;7.558;2024-02-04T17:30:58;6.52;103.00
73875;HTU21D;62209;47.568;7.558;2024-02-04T17:46:04;6.46;103.46
73875;HTU21D;62209;47.568;7.558;2024-02-04T18:01:10;6.30;103.69
73875;HTU21D;62209;47.568;7.558;2024-02-04T18:16:24;6.29;104.05
73875;HTU21D;62209;47.568;7.558;2024-02-04T18:31:31;6.10;103.95
73875;HTU21D;62209;47.568;7.558;2024-02-04T18:46:37;5.75;103.85
73875;HTU21D;62209;47.568;7.558;2024-02-04T19:01:45;5.35;104.08
73875;HTU21D;62209;47.568;7.558;2024-02-04T19:16:51;4.93;105.55
73875;HTU21D;62209;47.568;7.558;2024-02-04T19:31:56;4.92;105.38
73875;HTU21D;62209;47.568;7.558;2024-02-04T19:47:02;5.21;106.90
73875;HTU21D;62209;47.568;7.558;2024-02-04T20:02:08;4.77;107.46
73875;HTU21D;62209;47.568;7.558;2024-02-04T20:17:14;4.69;106.95
73875;HTU21D;62209;47.568;7.558;2024-02-04T20:32:20;5.15;107.79
73875;HTU21D;62209;47.568;7.558;2024-02-04T20:47:25;5.68;107.15
73875;HTU21D;62209;47.568;7.558;2024-02-04T21:02:31;5.93;106.27
73875;HTU21D;62209;47.568;7.558;2024-02-04T21:17:37;5.96;106.27
73875;HTU21D;62209;47.568;7.558;2024-02-04T21:32:43;5.98;105.79
73875;HTU21D;62209;47.568;7.558;2024-02-04T21:47:51;5.90;106.32
73875;HTU21D;62209;47.568;7.558;2024-02-04T22:02:57;5.93;106.54
73875;HTU21D;62209;47.568;7.558;2024-02-04T22:18:03;5.95;106.36
73875;HTU21D;62209;47.568;7.558;2024-02-04T22:33:10;5.92;106.40
73875;HTU21D;62209;47.568;7.558;2024-02-04T22:48:15;5.90;106.53
73875;HTU21D;62209;47.568;7.558;2024-02-04T23:03:21;5.92;106.32
73875;HTU21D;62209;47.568;7.558;2024-02-04T23:18:26;5.86;106.28
73875;HTU21D;62209;47.568;7.558;2024-02-04T23:33:32;5.86;106.12
73875;HTU21D;62209;47.568;7.558;2024-02-04T23:48:38;5.80;106.31
